createdAt,value
2023-03-23T16:02:02.042Z,19.71
2023-03-23T16:07:07.348Z,19.70
2023-03-23T16:12:13.519Z,19.68
2023-03-23T16:17:20.096Z,19.66
2023-03-23T16:22:23.759Z,19.64
2023-03-23T16:27:27.209Z,19.63
2023-03-23T16:32:31.149Z,19.62
2023-03-23T16:37:35.345Z,19.60
2023-03-23T16:42:38.683Z,19.59
2023-03-23T16:47:43.270Z,19.57
2023-03-23T16:52:48.616Z,19.56
2023-03-23T16:57:58.188Z,19.55
2023-03-23T17:03:12.604Z,19.49
2023-03-23T17:08:17.338Z,19.44
2023-03-23T17:13:20.680Z,19.41
2023-03-23T17:18:25.401Z,19.39
2023-03-23T17:23:29.450Z,19.37
2023-03-23T17:28:33.007Z,19.33
2023-03-23T17:33:36.482Z,19.26
2023-03-23T17:38:39.916Z,19.17
2023-03-23T17:43:43.656Z,19.11
2023-03-23T17:48:47.168Z,19.06
2023-03-23T17:53:50.898Z,19.03
2023-03-23T17:59:00.865Z,19.02
2023-03-23T18:04:04.949Z,18.97
2023-03-23T18:09:08.434Z,18.93
2023-03-23T18:14:12.009Z,18.93
2023-03-23T18:19:16.107Z,18.94
2023-03-23T18:24:20.933Z,18.94
2023-03-23T18:29:24.697Z,18.90
2023-03-23T18:34:28.106Z,18.77
2023-03-23T18:39:34.312Z,18.62
2023-03-23T18:44:38.296Z,18.47
2023-03-23T18:49:42.005Z,18.33
2023-03-23T18:54:45.723Z,18.20
2023-03-23T18:59:49.646Z,18.10
2023-03-23T19:04:53.425Z,18.03
2023-03-23T19:09:58.390Z,17.99
2023-03-23T19:15:02.297Z,17.99
2023-03-23T19:20:16.559Z,18.01
2023-03-23T19:25:30.152Z,18.03
2023-03-23T19:30:34.014Z,18.06
2023-03-23T19:35:37.587Z,18.10
2023-03-23T19:40:52.155Z,18.16
2023-03-23T19:45:55.692Z,18.19
2023-03-23T19:50:59.559Z,18.20
2023-03-23T19:56:04.850Z,18.21
2023-03-23T20:01:10.476Z,18.21
2023-03-23T20:06:15.626Z,18.20
2023-03-23T20:11:21.011Z,18.20
2023-03-23T20:16:26.522Z,18.18
2023-03-23T20:21:29.978Z,18.15
2023-03-23T20:26:39.283Z,18.12
2023-03-23T20:31:43.196Z,18.09
2023-03-23T20:36:47.025Z,18.07
2023-03-23T20:41:54.844Z,18.04
2023-03-23T20:46:58.999Z,18.01
2023-03-23T20:52:03.007Z,17.99
2023-03-23T20:57:07.226Z,17.98
2023-03-23T21:02:15.767Z,17.97
2023-03-23T21:07:23.393Z,17.97
2023-03-23T21:12:27.562Z,17.98
2023-03-23T21:17:31.263Z,17.99
2023-03-23T21:22:35.847Z,18.00
2023-03-23T21:27:39.880Z,18.00
2023-03-23T21:32:43.222Z,18.01
2023-03-23T21:37:48.836Z,18.02
2023-03-23T21:42:53.841Z,18.04
2023-03-23T21:47:58.268Z,18.02
2023-03-23T21:53:02.892Z,18.00
2023-03-23T21:58:06.553Z,17.94
2023-03-23T22:03:10.042Z,17.82
2023-03-23T22:08:14.131Z,17.69
2023-03-23T22:13:18.519Z,17.63
2023-03-23T22:18:22.175Z,17.61
2023-03-23T22:23:25.757Z,17.54
2023-03-23T22:28:31.258Z,17.42
2023-03-23T22:33:37.114Z,17.32
2023-03-23T22:38:43.197Z,17.30
2023-03-23T22:43:47.422Z,17.32
2023-03-23T22:48:51.081Z,17.33
2023-03-23T22:53:55.184Z,17.31
2023-03-23T22:59:00.478Z,17.32
2023-03-23T23:04:06.646Z,17.35
2023-03-23T23:09:10.676Z,17.34
2023-03-23T23:14:13.914Z,17.35
2023-03-23T23:19:25.978Z,17.37
2023-03-23T23:24:29.649Z,17.36
2023-03-23T23:29:33.005Z,17.38
2023-03-23T23:34:36.954Z,17.40
2023-03-23T23:39:41.523Z,17.41
2023-03-23T23:44:46.716Z,17.41
2023-03-23T23:49:51.252Z,17.42
2023-03-23T23:54:55.181Z,17.42
2023-03-23T23:59:58.471Z,17.43
